Time;durP1;ratioP1;P1;durP2;ratioP2;P2;SDS_P1;SDS_P2;PMS_P1;PMS_P2;Temp;Humidity;BMP_temperature;BMP_pressure;BME280_temperature;BME280_humidity;BME280_pressure;Samples;Min_cycle;Max_cycle;Signal;HPM_P1;HPM_P2
2022/03/27 00:00:50;;;;;;;15.20;11.40;;;28.60;89.30;;;;;;5085825;28;20055;-50
2022/03/27 00:03:16;;;;;;;13.75;11.30;;;28.60;89.50;;;;;;5085995;28;20032;-46
2022/03/27 00:05:43;;;;;;;19.13;11.77;;;28.60;89.60;;;;;;5085642;28;20021;-46
2022/03/27 00:08:09;;;;;;;22.30;11.43;;;28.60;89.70;;;;;;5085900;28;20012;-50
2022/03/27 00:11:23;;;;;;;15.25;11.25;;;28.60;89.70;;;;;;5085807;28;20021;-52
2022/03/27 00:13:22;;;;;;;17.35;10.73;;;28.60;89.40;;;;;;5085484;28;20045;-51
2022/03/27 00:15:49;;;;;;;15.85;10.80;;;28.50;89.20;;;;;;5085634;28;20095;-52
2022/03/27 00:18:16;;;;;;;13.73;11.55;;;28.50;88.80;;;;;;5085684;28;20037;-53
2022/03/27 00:20:42;;;;;;;13.63;10.63;;;28.50;88.70;;;;;;5085542;28;20035;-52
2022/03/27 00:23:09;;;;;;;15.90;11.25;;;28.50;88.60;;;;;;5085497;28;20029;-53
2022/03/27 00:25:35;;;;;;;16.33;11.73;;;28.50;88.60;;;;;;5085530;28;20012;-54
2022/03/27 00:28:03;;;;;;;17.00;11.32;;;28.50;88.50;;;;;;5084193;28;20032;-52
2022/03/27 00:30:30;;;;;;;14.40;11.57;;;28.50;88.30;;;;;;5085110;28;20304;-50
2022/03/27 00:32:57;;;;;;;17.30;12.40;;;28.50;88.20;;;;;;5085269;28;20059;-54
2022/03/27 00:35:24;;;;;;;16.95;11.35;;;28.50;88.20;;;;;;5085080;28;20032;-56
2022/03/27 00:37:52;;;;;;;14.18;10.50;;;28.50;88.10;;;;;;5085162;28;20039;-57
2022/03/27 00:40:19;;;;;;;14.32;9.57;;;28.50;87.80;;;;;;5083811;28;20084;-48
2022/03/27 00:42:46;;;;;;;15.70;10.15;;;28.50;87.70;;;;;;5085146;28;20039;-48
2022/03/27 00:45:13;;;;;;;14.45;9.55;;;28.50;87.60;;;;;;5084786;28;20019;-51
2022/03/27 00:47:39;;;;;;;15.43;10.80;;;28.40;87.30;;;;;;5084343;28;20020;-52
2022/03/27 00:50:06;;;;;;;15.25;10.52;;;28.50;87.30;;;;;;5084809;28;20051;-53
2022/03/27 00:52:33;;;;;;;19.00;10.52;;;28.50;87.10;;;;;;5084725;28;20028;-57
2022/03/27 00:55:00;;;;;;;15.73;10.80;;;28.50;87.00;;;;;;5084756;28;20024;-52
2022/03/27 00:57:27;;;;;;;17.00;10.40;;;28.50;86.80;;;;;;5084945;28;20028;-52
2022/03/27 00:59:54;;;;;;;15.75;10.48;;;28.50;86.70;;;;;;5084785;28;20062;-50
2022/03/27 01:02:25;;;;;;;13.48;10.02;;;28.40;86.10;;;;;;5084691;28;20296;-46
2022/03/27 01:04:55;;;;;;;15.82;9.98;;;28.40;86.10;;;;;;5084570;28;20024;-51
2022/03/27 01:07:22;;;;;;;14.02;10.50;;;28.40;86.00;;;;;;5084480;28;20028;-54
2022/03/27 01:09:49;;;;;;;17.95;10.52;;;28.40;86.20;;;;;;5084502;28;20013;-54
2022/03/27 01:12:16;;;;;;;19.65;11.05;;;28.40;86.30;;;;;;5084561;28;20074;-52
2022/03/27 01:14:46;;;;;;;17.38;11.27;;;28.40;86.30;;;;;;5084202;28;20032;-55
2022/03/27 01:17:22;;;;;;;19.27;11.68;;;28.40;86.10;;;;;;5084386;28;20036;-49
2022/03/27 01:19:51;;;;;;;17.88;11.60;;;28.40;86.00;;;;;;5084228;28;20308;-51
2022/03/27 01:22:19;;;;;;;13.05;10.93;;;28.40;85.70;;;;;;5084157;28;20028;-53
2022/03/27 01:24:47;;;;;;;15.43;10.77;;;28.30;85.30;;;;;;5084273;28;20161;-51
2022/03/27 01:27:14;;;;;;;12.05;10.48;;;28.40;85.10;;;;;;5084033;28;20035;-50
2022/03/27 01:29:41;;;;;;;17.67;10.80;;;28.40;84.80;;;;;;5084284;28;20017;-47
2022/03/27 01:32:14;;;;;;;15.18;10.27;;;28.40;84.50;;;;;;5084125;28;20036;-53
2022/03/27 01:34:44;;;;;;;20.38;11.40;;;28.30;84.20;;;;;;5084028;28;20047;-54
2022/03/27 01:37:14;;;;;;;15.40;12.15;;;28.30;83.70;;;;;;5083966;28;20032;-51
2022/03/27 01:39:41;;;;;;;15.15;11.00;;;28.30;83.70;;;;;;5083933;28;20020;-53
2022/03/27 01:42:08;;;;;;;18.20;10.45;;;28.30;83.50;;;;;;5083980;28;20074;-48
2022/03/27 01:44:35;;;;;;;14.23;10.68;;;28.30;83.30;;;;;;5083988;28;20028;-48
2022/03/27 01:47:02;;;;;;;18.50;11.50;;;28.30;83.10;;;;;;5083906;28;20204;-51
2022/03/27 01:49:29;;;;;;;15.23;10.90;;;28.30;83.00;;;;;;5083782;28;20024;-50
2022/03/27 01:51:55;;;;;;;17.50;10.68;;;28.30;82.90;;;;;;5083787;28;20035;-47
2022/03/27 01:54:22;;;;;;;17.42;10.80;;;28.30;82.80;;;;;;5084136;28;20304;-46
2022/03/27 01:56:49;;;;;;;20.35;11.15;;;28.30;82.80;;;;;;5083636;28;20020;-51
2022/03/27 01:59:16;;;;;;;15.55;10.60;;;28.30;82.50;;;;;;5083721;28;20207;-50
2022/03/27 02:01:42;;;;;;;15.05;10.25;;;28.30;82.40;;;;;;5083992;28;20091;-53
2022/03/27 02:04:09;;;;;;;13.85;10.35;;;28.30;82.50;;;;;;5084022;28;20377;-49
2022/03/27 02:06:39;;;;;;;13.82;10.82;;;28.30;82.40;;;;;;5083629;28;20081;-50
2022/03/27 02:09:07;;;;;;;21.98;10.65;;;28.30;82.40;;;;;;5084155;28;20060;-47
2022/03/27 02:11:34;;;;;;;90.88;16.80;;;28.30;82.20;;;;;;5083602;28;20021;-48
2022/03/27 02:14:00;;;;;;;238.65;27.95;;;28.30;82.00;;;;;;5083631;28;20053;-51
2022/03/27 02:16:27;;;;;;;63.65;15.88;;;28.30;82.00;;;;;;5083563;28;20082;-52
2022/03/27 02:18:54;;;;;;;34.95;12.00;;;28.30;81.70;;;;;;5083882;28;20245;-57
2022/03/27 02:21:21;;;;;;;37.85;11.93;;;28.30;81.40;;;;;;5083632;28;20020;-53
2022/03/27 02:23:47;;;;;;;32.85;11.88;;;28.30;81.40;;;;;;5084026;28;20189;-47
2022/03/27 02:26:14;;;;;;;33.10;11.80;;;28.20;81.10;;;;;;5083523;28;20016;-49
2022/03/27 02:28:41;;;;;;;23.05;10.57;;;28.20;80.80;;;;;;5083926;28;20301;-56
2022/03/27 02:31:08;;;;;;;25.95;10.75;;;28.30;81.10;;;;;;5083539;28;20017;-52
2022/03/27 02:33:36;;;;;;;17.50;10.52;;;28.20;80.70;;;;;;5083672;28;20028;-49
2022/03/27 02:36:07;;;;;;;17.67;10.07;;;28.20;80.40;;;;;;5083513;28;20027;-54
2022/03/27 02:38:34;;;;;;;19.80;11.07;;;28.20;80.40;;;;;;5079745;28;20035;-52
2022/03/27 02:41:00;;;;;;;13.63;10.50;;;28.20;80.10;;;;;;5082689;28;20339;-52
2022/03/27 02:43:27;;;;;;;17.25;10.63;;;28.30;80.00;;;;;;5083625;28;20039;-53
2022/03/27 02:45:54;;;;;;;18.80;10.15;;;28.20;80.10;;;;;;5083375;28;20017;-53
2022/03/27 02:48:22;;;;;;;16.75;9.77;;;28.20;79.70;;;;;;5083623;28;20193;-56
2022/03/27 02:50:48;;;;;;;16.75;10.43;;;28.20;79.60;;;;;;5083287;28;20059;-52
2022/03/27 02:53:15;;;;;;;17.33;10.80;;;28.20;79.60;;;;;;5083579;28;20351;-55
2022/03/27 02:55:42;;;;;;;18.63;9.88;;;28.20;79.50;;;;;;5084528;28;20025;-53
2022/03/27 02:58:09;;;;;;;13.23;9.80;;;28.20;79.60;;;;;;5083609;28;20074;-57
2022/03/27 03:00:35;;;;;;;14.20;9.68;;;28.20;79.50;;;;;;5083312;28;20016;-53
2022/03/27 03:03:02;;;;;;;15.55;9.70;;;28.20;79.20;;;;;;5083205;28;20297;-54
2022/03/27 03:05:29;;;;;;;12.00;9.25;;;28.20;79.50;;;;;;5083240;28;20022;-48
2022/03/27 03:07:57;;;;;;;12.10;9.05;;;28.20;79.10;;;;;;5083484;28;20030;-49
2022/03/27 03:10:24;;;;;;;15.32;9.38;;;28.10;79.00;;;;;;5084045;28;20365;-46
2022/03/27 03:12:50;;;;;;;16.63;10.18;;;28.20;79.00;;;;;;5086839;28;20032;-48
2022/03/27 03:15:17;;;;;;;19.25;9.63;;;28.10;78.70;;;;;;5087266;28;20024;-51
2022/03/27 03:17:44;;;;;;;11.90;9.27;;;28.20;79.00;;;;;;5086889;28;20095;-52
2022/03/27 03:20:11;;;;;;;17.38;8.98;;;28.10;79.00;;;;;;5086726;28;20039;-54
2022/03/27 03:22:40;;;;;;;12.30;8.93;;;28.10;78.70;;;;;;5086767;28;20042;-50
2022/03/27 03:25:07;;;;;;;12.68;8.70;;;28.10;78.70;;;;;;5086463;28;20055;-49
2022/03/27 03:27:34;;;;;;;12.40;9.07;;;28.20;78.70;;;;;;5086727;28;20025;-48
2022/03/27 03:30:01;;;;;;;11.60;9.07;;;28.20;78.90;;;;;;5086491;28;20040;-49
2022/03/27 03:32:28;;;;;;;13.00;9.52;;;28.10;78.70;;;;;;5086365;28;20384;-52
2022/03/27 03:34:55;;;;;;;15.70;9.35;;;28.10;78.90;;;;;;5086348;28;20304;-52
2022/03/27 03:37:23;;;;;;;11.93;8.82;;;28.10;78.60;;;;;;5086393;28;20323;-49
2022/03/27 03:39:49;;;;;;;11.77;9.07;;;28.20;78.80;;;;;;5086142;28;20032;-50
2022/03/27 03:42:16;;;;;;;12.45;8.90;;;28.10;78.90;;;;;;5086457;28;20095;-47
2022/03/27 03:44:43;;;;;;;11.27;8.35;;;28.10;79.00;;;;;;5086243;28;20012;-47
2022/03/27 03:47:10;;;;;;;13.40;10.20;;;28.10;79.10;;;;;;5086036;28;20025;-47
2022/03/27 03:49:38;;;;;;;14.85;11.55;;;28.10;79.00;;;;;;5086198;28;20013;-56
2022/03/27 03:52:06;;;;;;;12.38;11.07;;;28.10;79.80;;;;;;5086064;28;20016;-47
2022/03/27 03:54:36;;;;;;;12.27;10.93;;;28.10;80.20;;;;;;5085993;28;20212;-48
2022/03/27 03:57:04;;;;;;;14.52;10.75;;;28.10;80.50;;;;;;5086082;28;20185;-49
2022/03/27 03:59:36;;;;;;;13.23;9.90;;;28.10;80.70;;;;;;5086018;28;20020;-46
2022/03/27 04:02:07;;;;;;;12.68;9.82;;;28.10;80.20;;;;;;5085795;28;20016;-52
2022/03/27 04:04:35;;;;;;;17.80;10.63;;;28.10;80.20;;;;;;5085853;28;20103;-51
2022/03/27 04:07:04;;;;;;;16.02;12.77;;;28.10;80.00;;;;;;5085818;28;20017;-51
2022/03/27 04:09:30;;;;;;;17.17;11.18;;;28.10;79.70;;;;;;5085617;28;20193;-52
2022/03/27 04:11:57;;;;;;;19.08;10.85;;;28.10;79.90;;;;;;5085709;28;20028;-48
2022/03/27 04:14:24;;;;;;;14.70;10.30;;;28.10;80.10;;;;;;5085667;28;20089;-47
2022/03/27 04:16:50;;;;;;;16.38;10.23;;;28.00;80.30;;;;;;5085395;28;20017;-52
2022/03/27 04:19:17;;;;;;;13.95;9.63;;;28.00;80.70;;;;;;5085573;28;20031;-54
2022/03/27 04:21:43;;;;;;;15.90;9.50;;;28.00;80.40;;;;;;5085569;28;20044;-50
2022/03/27 04:24:10;;;;;;;13.27;9.90;;;28.00;80.40;;;;;;5085767;28;20024;-49
2022/03/27 04:26:40;;;;;;;14.55;9.93;;;28.00;80.40;;;;;;5085406;28;20027;-52
2022/03/27 04:29:07;;;;;;;12.20;10.05;;;28.00;80.80;;;;;;5085881;28;20205;-49
2022/03/27 04:31:34;;;;;;;13.18;10.32;;;28.00;80.80;;;;;;5085177;28;20450;-49
2022/03/27 04:52:09;;;;;;;40.38;16.67;;;27.90;83.60;;;;;;5101108;27;20426;-60
2022/03/27 04:54:35;;;;;;;50.33;18.70;;;27.90;86.10;;;;;;5101360;28;20319;-53
2022/03/27 04:57:02;;;;;;;44.10;19.58;;;27.90;87.10;;;;;;5101406;28;20117;-55
2022/03/27 04:59:29;;;;;;;49.92;20.98;;;27.90;88.40;;;;;;5100998;28;20013;-56
2022/03/27 05:01:57;;;;;;;36.60;20.30;;;27.80;89.10;;;;;;5101214;28;20016;-52
2022/03/27 05:04:23;;;;;;;39.22;19.95;;;27.80;89.70;;;;;;5101053;28;20231;-51
2022/03/27 05:06:50;;;;;;;37.83;19.80;;;27.80;89.80;;;;;;5100920;28;20031;-50
2022/03/27 05:09:18;;;;;;;40.92;19.73;;;27.70;89.20;;;;;;5100983;28;20016;-49
2022/03/27 05:11:45;;;;;;;30.90;18.55;;;27.70;89.40;;;;;;5101024;28;20307;-51
2022/03/27 05:14:12;;;;;;;34.53;17.02;;;27.70;89.50;;;;;;5100382;28;20020;-64
2022/03/27 05:16:38;;;;;;;31.05;18.08;;;27.60;89.70;;;;;;5100751;28;20021;-53
2022/03/27 05:19:05;;;;;;;33.38;18.52;;;27.60;89.80;;;;;;5100880;28;20304;-53
2022/03/27 05:21:35;;;;;;;42.35;27.10;;;27.60;90.10;;;;;;5101118;28;20103;-55
2022/03/27 05:24:02;;;;;;;45.25;30.40;;;27.50;90.20;;;;;;5100719;28;20287;-53
2022/03/27 05:26:29;;;;;;;53.28;39.78;;;27.50;90.30;;;;;;5101211;28;20030;-51
2022/03/27 05:28:56;;;;;;;48.55;35.78;;;27.50;90.40;;;;;;5100535;28;20023;-56
2022/03/27 05:31:23;;;;;;;38.15;28.25;;;27.50;90.40;;;;;;5101111;28;20024;-57
2022/03/27 05:33:49;;;;;;;33.58;24.02;;;27.50;90.30;;;;;;5100658;28;20043;-56
2022/03/27 05:36:16;;;;;;;31.95;23.00;;;27.50;90.10;;;;;;5100718;28;20357;-51
2022/03/27 05:38:42;;;;;;;27.77;19.90;;;27.50;90.10;;;;;;5100803;28;20267;-57
2022/03/27 05:41:12;;;;;;;24.15;18.52;;;27.40;90.00;;;;;;5100848;28;20292;-59
2022/03/27 05:43:38;;;;;;;29.60;18.40;;;27.50;90.00;;;;;;5100143;28;20326;-55
2022/03/27 05:46:05;;;;;;;24.55;17.58;;;27.40;90.00;;;;;;5100852;28;20239;-50
2022/03/27 05:48:32;;;;;;;25.73;18.15;;;27.40;89.90;;;;;;5100257;28;20311;-49
2022/03/27 05:50:58;;;;;;;22.65;16.55;;;27.40;89.80;;;;;;5098496;28;20055;-51
2022/03/27 05:53:25;;;;;;;24.52;16.25;;;27.40;89.70;;;;;;5086392;28;20027;-51
2022/03/27 05:55:52;;;;;;;24.02;17.35;;;27.40;89.60;;;;;;5087020;28;20032;-53
2022/03/27 05:58:18;;;;;;;22.65;17.30;;;27.30;89.60;;;;;;5086509;28;20016;-51
2022/03/27 06:00:45;;;;;;;22.48;17.00;;;27.30;89.70;;;;;;5086920;28;20033;-52
2022/03/27 06:03:11;;;;;;;24.38;17.67;;;27.30;89.70;;;;;;5086591;28;20027;-56
2022/03/27 06:05:38;;;;;;;23.90;17.35;;;27.30;89.70;;;;;;5086793;28;20032;-49
2022/03/27 06:08:05;;;;;;;22.20;17.38;;;27.30;89.80;;;;;;5086341;28;20023;-52
2022/03/27 06:10:32;;;;;;;24.23;18.63;;;27.20;90.00;;;;;;5086703;28;20020;-52
2022/03/27 06:13:01;;;;;;;21.92;17.45;;;27.20;89.80;;;;;;5086457;28;20043;-52
2022/03/27 06:15:29;;;;;;;22.08;16.65;;;27.20;90.00;;;;;;5086554;28;20293;-58
2022/03/27 06:17:57;;;;;;;25.15;18.58;;;27.10;90.00;;;;;;5086295;28;20027;-52
2022/03/27 06:20:26;;;;;;;20.83;18.02;;;27.10;90.00;;;;;;5086333;28;20066;-57
2022/03/27 06:22:53;;;;;;;19.98;17.45;;;27.00;90.00;;;;;;5086373;28;20208;-49
2022/03/27 06:25:23;;;;;;;21.48;18.23;;;27.00;90.00;;;;;;5086269;28;20036;-52
2022/03/27 06:27:50;;;;;;;23.13;17.25;;;27.00;90.10;;;;;;5085864;28;20207;-47
2022/03/27 06:30:22;;;;;;;19.98;16.42;;;27.00;90.00;;;;;;5086250;28;20029;-48
2022/03/27 06:32:51;;;;;;;20.88;16.45;;;27.00;90.00;;;;;;5085994;28;20032;-51
2022/03/27 06:35:19;;;;;;;21.75;16.67;;;26.90;89.80;;;;;;5085940;28;20055;-48
2022/03/27 06:37:46;;;;;;;20.58;16.77;;;27.00;89.80;;;;;;5086030;28;20020;-48
2022/03/27 06:40:14;;;;;;;20.88;16.52;;;26.90;89.60;;;;;;5085900;28;20035;-49
2022/03/27 06:42:43;;;;;;;20.25;16.42;;;26.90;89.60;;;;;;5085656;28;20013;-52
2022/03/27 06:45:12;;;;;;;21.30;15.60;;;26.90;89.80;;;;;;5085855;28;20025;-48
2022/03/27 06:47:39;;;;;;;19.20;14.77;;;26.90;89.90;;;;;;5085684;28;20036;-54
2022/03/27 06:50:07;;;;;;;18.10;13.75;;;26.90;89.80;;;;;;5085410;28;20052;-51
2022/03/27 06:52:35;;;;;;;17.98;13.98;;;26.90;89.60;;;;;;5085643;28;20024;-51
2022/03/27 06:55:03;;;;;;;17.42;14.18;;;27.00;89.60;;;;;;5085640;28;20243;-53
2022/03/27 06:57:29;;;;;;;17.55;14.43;;;27.00;89.70;;;;;;5085370;28;20027;-52
2022/03/27 07:05:25;;;;;;;21.25;17.48;;;27.00;90.60;;;;;;5085331;28;20208;-53
2022/03/27 07:07:52;;;;;;;20.70;17.35;;;26.90;90.70;;;;;;5085353;28;20063;-50
2022/03/27 07:10:19;;;;;;;20.95;16.45;;;26.90;90.80;;;;;;5085382;28;20028;-54
2022/03/27 07:12:46;;;;;;;18.30;16.15;;;26.90;90.90;;;;;;5085107;28;20024;-57
2022/03/27 07:15:13;;;;;;;18.52;16.50;;;26.90;90.90;;;;;;5085131;28;20035;-48
2022/03/27 07:17:51;;;;;;;20.42;16.98;;;26.90;91.10;;;;;;5085293;28;20025;-47
2022/03/27 07:20:25;;;;;;;22.92;16.83;;;26.90;91.20;;;;;;5085080;28;20028;-55
2022/03/27 07:22:54;;;;;;;21.25;17.40;;;26.90;91.20;;;;;;5084904;28;20048;-54
2022/03/27 07:25:22;;;;;;;20.55;16.95;;;26.90;91.30;;;;;;5085139;28;20046;-55
2022/03/27 07:27:49;;;;;;;19.42;16.65;;;26.90;91.30;;;;;;5084784;28;20016;-51
2022/03/27 07:30:16;;;;;;;21.45;16.40;;;26.90;91.40;;;;;;5084922;28;20024;-53
2022/03/27 07:32:44;;;;;;;20.10;17.17;;;26.90;91.40;;;;;;5084784;28;20020;-55
2022/03/27 07:35:14;;;;;;;20.23;16.92;;;26.90;91.40;;;;;;5084380;28;20039;-49
2022/03/27 07:37:42;;;;;;;20.80;16.17;;;26.90;91.80;;;;;;5084686;28;20058;-53
2022/03/27 07:40:10;;;;;;;19.83;16.35;;;26.90;91.50;;;;;;5084831;28;20032;-55
2022/03/27 07:42:42;;;;;;;20.30;16.40;;;26.90;91.40;;;;;;5084318;28;20016;-56
2022/03/27 07:45:09;;;;;;;21.63;17.20;;;26.90;91.40;;;;;;5084706;28;20032;-49
2022/03/27 07:47:36;;;;;;;18.95;16.70;;;26.90;91.40;;;;;;5084414;28;20027;-52
2022/03/27 07:50:05;;;;;;;18.90;16.92;;;26.90;91.60;;;;;;5084080;28;20206;-52
2022/03/27 07:52:31;;;;;;;24.55;17.17;;;26.90;91.70;;;;;;5084738;28;20091;-52
2022/03/27 07:54:58;;;;;;;22.67;17.42;;;26.90;91.60;;;;;;5084480;28;20083;-50
2022/03/27 07:57:26;;;;;;;21.30;17.73;;;26.90;91.70;;;;;;5084216;28;20024;-53
2022/03/27 07:59:52;;;;;;;18.98;16.98;;;26.80;91.60;;;;;;5084308;28;20028;-51
2022/03/27 08:02:21;;;;;;;23.60;17.85;;;26.90;91.50;;;;;;5084117;28;20016;-56
2022/03/27 08:04:48;;;;;;;24.50;17.73;;;26.90;91.50;;;;;;5084166;28;20108;-54
2022/03/27 08:07:15;;;;;;;21.63;16.88;;;26.90;91.60;;;;;;5084313;28;20067;-52
2022/03/27 08:09:42;;;;;;;22.90;17.95;;;26.90;91.80;;;;;;5084130;28;20024;-55
2022/03/27 08:12:11;;;;;;;24.55;17.27;;;26.80;91.60;;;;;;5084012;28;20024;-49
2022/03/27 08:14:38;;;;;;;24.60;17.33;;;26.80;91.60;;;;;;5083887;28;20032;-60
2022/03/27 08:17:06;;;;;;;22.75;17.63;;;26.80;91.60;;;;;;5084107;28;20211;-53
2022/03/27 08:19:34;;;;;;;25.33;17.42;;;26.80;91.50;;;;;;5083782;28;20024;-52
2022/03/27 08:22:01;;;;;;;21.83;17.58;;;26.80;91.60;;;;;;5083936;28;20043;-50
2022/03/27 08:24:28;;;;;;;23.33;17.65;;;26.80;91.50;;;;;;5083949;28;20047;-50
2022/03/27 08:27:02;;;;;;;24.23;17.48;;;26.80;91.50;;;;;;5083758;28;20020;-56
2022/03/27 08:29:32;;;;;;;21.45;17.27;;;26.80;91.60;;;;;;5083903;28;20021;-51
2022/03/27 08:32:03;;;;;;;20.08;16.77;;;26.80;91.70;;;;;;5083848;28;20024;-52
2022/03/27 08:34:32;;;;;;;23.97;17.10;;;26.80;91.80;;;;;;5083961;28;20033;-51
2022/03/27 08:37:01;;;;;;;23.70;18.10;;;26.80;91.70;;;;;;5083829;28;20017;-58
2022/03/27 08:39:28;;;;;;;20.85;17.00;;;26.80;91.80;;;;;;5083561;28;20026;-52
2022/03/27 08:41:55;;;;;;;20.65;17.63;;;26.80;91.90;;;;;;5083660;28;20017;-57
2022/03/27 08:44:25;;;;;;;20.27;17.55;;;26.80;92.00;;;;;;5083863;28;20021;-51
2022/03/27 08:46:53;;;;;;;24.27;17.40;;;26.70;91.90;;;;;;5083507;28;20204;-53
2022/03/27 08:49:40;;;;;;;21.23;18.02;;;26.80;92.00;;;;;;5083669;28;20045;-58
2022/03/27 08:52:23;;;;;;;21.33;17.88;;;26.70;91.90;;;;;;5083607;28;20209;-52
2022/03/27 08:54:52;;;;;;;;;;;26.70;91.90;;;;;;5084175;28;20048;-52
2022/03/27 08:57:34;;;;;;;23.02;17.88;;;26.80;91.90;;;;;;5083486;28;19905;-48
2022/03/27 09:00:04;;;;;;;20.88;18.05;;;26.70;91.70;;;;;;5083693;28;20268;-48
2022/03/27 09:02:31;;;;;;;25.00;18.63;;;26.70;91.80;;;;;;5083489;28;20087;-51
2022/03/27 09:04:59;;;;;;;22.23;17.98;;;26.70;91.70;;;;;;5083891;28;20051;-48
2022/03/27 09:07:29;;;;;;;24.08;18.27;;;26.70;91.60;;;;;;5083607;28;20047;-50
2022/03/27 09:10:18;;;;;;;22.08;18.02;;;26.70;91.60;;;;;;5061584;28;20198;-49
2022/03/27 09:13:06;;;;;;;23.58;18.02;;;26.70;91.70;;;;;;5041622;28;20029;-49
2022/03/27 09:15:33;;;;;;;23.90;18.50;;;26.70;91.50;;;;;;5041615;28;20044;-54
2022/03/27 09:18:10;;;;;;;20.67;16.52;;;26.70;91.50;;;;;;5041645;28;20025;-57
2022/03/27 09:20:43;;;;;;;25.50;17.33;;;26.70;91.50;;;;;;5041309;28;20306;-53
2022/03/27 09:23:14;;;;;;;;;;;26.60;91.50;;;;;;5042090;28;20034;-54
2022/03/27 09:26:09;;;;;;;21.15;16.58;;;26.60;91.50;;;;;;5041418;28;19936;-59
2022/03/27 09:28:43;;;;;;;23.13;16.30;;;26.70;91.50;;;;;;4986312;28;20030;-55
2022/03/27 09:31:19;;;;;;;23.35;16.42;;;26.60;91.40;;;;;;4986198;28;20038;-50
2022/03/27 09:33:57;;;;;;;22.23;16.15;;;26.60;91.50;;;;;;4986251;28;20035;-57
2022/03/27 09:36:29;;;;;;;21.08;16.10;;;26.70;91.60;;;;;;4985969;28;20113;-53
2022/03/27 09:39:16;;;;;;;18.02;15.68;;;26.70;91.50;;;;;;4986484;28;20046;-49
2022/03/27 09:41:44;;;;;;;19.85;16.10;;;26.60;91.50;;;;;;4985785;28;20421;-53
2022/03/27 09:44:18;;;;;;;18.13;15.50;;;26.60;91.40;;;;;;4996711;28;20030;-52
2022/03/27 09:47:12;;;;;;;20.25;16.13;;;26.60;91.50;;;;;;5010139;28;20022;-50
2022/03/27 09:49:46;;;;;;;23.25;16.90;;;26.60;91.50;;;;;;5044873;28;20025;-49
2022/03/27 09:52:21;;;;;;;21.63;16.63;;;26.60;91.50;;;;;;5044817;28;20037;-53
2022/03/27 09:54:50;;;;;;;26.67;16.80;;;26.60;91.60;;;;;;5044909;28;20063;-50
2022/03/27 09:57:25;;;;;;;20.42;15.90;;;26.60;91.80;;;;;;5044565;28;20037;-47
2022/03/27 09:59:53;;;;;;;21.52;15.98;;;26.60;91.80;;;;;;5044974;28;20034;-54
2022/03/27 10:02:21;;;;;;;22.73;16.13;;;26.60;91.90;;;;;;5044862;28;20033;-53
2022/03/27 10:05:01;;;;;;;24.10;16.02;;;26.60;92.00;;;;;;5044555;28;20241;-50
2022/03/27 10:07:36;;;;;;;19.38;15.38;;;26.60;92.00;;;;;;5044659;28;20026;-51
2022/03/27 10:10:32;;;;;;;28.20;16.73;;;26.50;92.00;;;;;;5044456;28;20037;-53
2022/03/27 10:13:02;;;;;;;22.30;16.85;;;26.50;92.00;;;;;;5076306;28;20036;-52
2022/03/27 10:15:30;;;;;;;22.23;19.90;;;26.50;91.90;;;;;;5086573;28;20025;-53
2022/03/27 10:18:03;;;;;;;22.98;20.60;;;26.60;92.00;;;;;;5086361;28;20262;-59
2022/03/27 10:21:00;;;;;;;23.27;20.88;;;26.50;92.00;;;;;;5086334;28;20029;-48
2022/03/27 10:23:30;;;;;;;25.55;22.83;;;26.50;92.00;;;;;;5085459;28;20219;-52
2022/03/27 10:26:21;;;;;;;25.73;23.08;;;26.50;92.00;;;;;;5086503;28;20028;-53
2022/03/27 10:28:50;;;;;;;28.00;24.88;;;26.50;92.00;;;;;;5024334;28;20037;-56
2022/03/27 10:31:19;;;;;;;28.20;24.30;;;26.50;92.10;;;;;;5024417;28;20034;-55
2022/03/27 10:33:48;;;;;;;29.38;26.23;;;26.50;92.00;;;;;;5024343;28;20022;-54
2022/03/27 10:36:23;;;;;;;28.42;25.45;;;26.50;92.10;;;;;;5024201;28;20103;-58
2022/03/27 10:38:59;;;;;;;29.42;26.35;;;26.50;92.10;;;;;;5024252;28;20026;-53
2022/03/27 10:41:35;;;;;;;28.77;25.98;;;26.50;92.20;;;;;;5023901;28;20049;-57
2022/03/27 10:44:21;;;;;;;29.88;26.73;;;26.40;92.20;;;;;;5024312;28;20083;-57
2022/03/27 10:47:12;;;;;;;30.20;26.98;;;26.40;92.30;;;;;;5024096;28;20367;-53
2022/03/27 10:49:39;;;;;;;29.23;25.60;;;26.40;92.40;;;;;;5023874;28;20095;-53
2022/03/27 10:52:07;;;;;;;30.80;26.80;;;26.40;92.40;;;;;;5023708;28;20030;-54
2022/03/27 10:54:58;;;;;;;33.42;27.63;;;26.40;92.50;;;;;;5024027;28;20026;-54
2022/03/27 10:57:39;;;;;;;31.15;27.70;;;26.40;92.40;;;;;;5023847;28;20033;-57
2022/03/27 11:00:07;;;;;;;30.98;27.50;;;26.40;92.40;;;;;;5023885;28;20057;-53
2022/03/27 11:02:53;;;;;;;34.78;27.55;;;26.40;92.60;;;;;;5023744;28;20329;-53
2022/03/27 11:05:35;;;;;;;30.85;27.75;;;26.40;92.60;;;;;;5023662;28;20037;-53
2022/03/27 11:08:30;;;;;;;31.13;27.75;;;26.40;92.60;;;;;;5007221;28;20020;-56
2022/03/27 11:11:00;;;;;;;34.35;29.65;;;26.40;92.50;;;;;;5002691;28;20034;-57
2022/03/27 11:13:26;;;;;;;36.75;29.00;;;26.40;92.50;;;;;;5023655;28;20077;-55
2022/03/27 11:16:14;;;;;;;33.67;29.20;;;26.30;92.40;;;;;;5023734;28;20076;-53
2022/03/27 11:18:50;;;;;;;34.40;30.65;;;26.40;92.30;;;;;;5045905;28;20024;-47
2022/03/27 11:21:29;;;;;;;39.65;31.35;;;26.40;92.40;;;;;;5085416;28;20051;-54
2022/03/27 11:24:04;;;;;;;37.70;30.85;;;26.40;92.50;;;;;;5085155;28;20562;-53
2022/03/27 11:26:32;;;;;;;37.95;31.90;;;26.40;92.50;;;;;;5085516;28;20024;-55
2022/03/27 11:29:19;;;;;;;40.17;32.72;;;26.30;92.50;;;;;;5084750;28;20035;-55
2022/03/27 11:32:02;;;;;;;36.70;32.13;;;26.30;92.60;;;;;;5084857;28;20071;-52
2022/03/27 11:34:29;;;;;;;32.95;29.55;;;26.40;92.60;;;;;;5084717;28;20060;-54
2022/03/27 11:37:12;;;;;;;36.88;29.20;;;26.40;92.80;;;;;;5084765;28;20212;-56
2022/03/27 11:39:40;;;;;;;35.60;28.75;;;26.30;92.90;;;;;;5084631;28;20028;-61
2022/03/27 11:42:34;;;;;;;39.05;27.30;;;26.30;92.80;;;;;;5084308;28;20035;-57
2022/03/27 11:45:36;;;;;;;28.70;23.70;;;26.30;92.90;;;;;;5081850;28;20064;-56
2022/03/27 11:48:15;;;;;;;29.50;24.83;;;26.30;92.90;;;;;;5084509;28;20017;-55
2022/03/27 11:50:42;;;;;;;28.45;22.75;;;26.30;92.90;;;;;;5083831;28;20274;-58
2022/03/27 11:53:09;;;;;;;24.90;20.90;;;26.30;93.00;;;;;;5084288;28;20024;-55
2022/03/27 11:55:37;;;;;;;22.85;19.73;;;26.30;92.90;;;;;;5084602;28;20235;-54
2022/03/27 11:58:07;;;;;;;25.58;18.30;;;26.30;92.90;;;;;;5084263;28;20026;-55
2022/03/27 12:00:40;;;;;;;;;;;26.30;92.90;;;;;;5084657;28;20032;-61
2022/03/27 12:03:21;;;;;;;19.52;16.40;;;26.30;92.90;;;;;;5084323;28;19923;-54
2022/03/27 12:05:49;;;;;;;20.25;16.02;;;26.30;92.90;;;;;;5084411;28;20024;-55
2022/03/27 12:08:20;;;;;;;21.63;15.80;;;26.30;92.80;;;;;;5082955;28;20311;-53
2022/03/27 12:10:49;;;;;;;19.10;15.02;;;26.30;92.70;;;;;;5084456;28;20091;-52
2022/03/27 12:13:16;;;;;;;21.02;15.02;;;26.30;92.70;;;;;;5083864;28;20066;-54
2022/03/27 12:15:52;;;;;;;17.73;13.77;;;26.30;92.60;;;;;;5084367;28;20025;-53
2022/03/27 12:18:38;;;;;;;20.67;14.70;;;26.30;92.60;;;;;;5083697;28;20308;-53
2022/03/27 12:21:10;;;;;;;16.90;13.40;;;26.30;92.50;;;;;;5084378;28;20036;-53
2022/03/27 12:23:38;;;;;;;16.27;13.27;;;26.30;92.40;;;;;;5083900;28;20238;-53
2022/03/27 12:32:22;;;;;;;17.35;13.65;;;26.30;92.20;;;;;;5083857;28;20078;-53
2022/03/27 12:34:50;;;;;;;16.20;13.93;;;26.30;92.20;;;;;;5083939;28;20051;-59
2022/03/27 12:49:10;;;;;;;19.08;16.15;;;26.30;91.90;;;;;;5100730;27;2429700;-52
2022/03/27 12:51:37;;;;;;;24.67;16.67;;;26.50;91.60;;;;;;5162942;27;20027;-50
2022/03/27 12:54:08;;;;;;;25.30;17.73;;;26.50;91.70;;;;;;5162858;27;20026;-49
2022/03/27 12:56:55;;;;;;;23.60;17.10;;;26.40;91.80;;;;;;5162587;27;20033;-50
2022/03/27 12:59:23;;;;;;;149.02;23.08;;;26.40;91.80;;;;;;5162894;27;20019;-48
2022/03/27 13:01:50;;;;;;;115.20;20.88;;;26.40;91.80;;;;;;5162744;27;20011;-52
2022/03/27 13:04:17;;;;;;;47.70;17.75;;;26.40;91.80;;;;;;5162664;27;20210;-49
2022/03/27 13:07:03;;;;;;;31.42;17.77;;;26.40;91.80;;;;;;5162631;27;20235;-52
2022/03/27 13:09:29;;;;;;;28.20;18.50;;;26.30;91.80;;;;;;5162485;27;20071;-52
2022/03/27 13:11:56;;;;;;;26.83;18.45;;;26.30;91.90;;;;;;5162619;27;20252;-52
2022/03/27 13:14:22;;;;;;;32.00;18.65;;;26.30;92.00;;;;;;5162795;27;20033;-54
2022/03/27 13:16:51;;;;;;;27.27;19.55;;;26.30;92.00;;;;;;5162385;27;20134;-52
2022/03/27 13:19:20;;;;;;;30.85;21.17;;;26.30;91.90;;;;;;5162307;27;20397;-50
2022/03/27 13:21:57;;;;;;;30.95;22.85;;;26.30;91.90;;;;;;5162186;27;20037;-51
2022/03/27 13:24:31;;;;;;;32.83;23.45;;;26.30;91.90;;;;;;5162331;27;20018;-49